LFBLEGNX

Guest
Details From LFBL - Limoges Bellegarde
To EGNX - East Midlands
Flight Number -
Tags decoded
Created
Modified
Stats Distance 430 nm / 796 km
Max Altitude 0 ft / 0 m
Waypoints 2
Social Downloads 1
Likes 0
Share VATSIM

Download

Looking for another format? Having issues loading an existing format? Contact us
Advertisement - Login to hide

Notes

Requested: LFBL EGNX

Route

LFBL EGNX

ID Type Via Altitude Latitude Longitude Leg Dist Tot Dist Heading (true) Name
O LFBL APT - 0 ft / 0 m 45.86190˚ 1.18137˚ - 0 nm - Limoges Bellegarde
O EGNX APT - 0 ft / 0 m 52.83100˚ -1.32815˚ 429 nm 429 nm 348° / 346° East Midlands

Altitude Profile

Advertisement - Login to hide

Weather


0- 5 10 15 20 25 30 35+ Temperature / ° C

Clouds and Precipitation
Forecast for 2018-05-22 12:00 UTC. Updated 5 hours ago

Ground ~20,000 ft ~40,000 ft Winds

LFBL

Details ICAO LFBL (LIG)
Name Limoges Bellegarde
Region France
Timezone Europe/Paris (UTC+2.0)
Stats Elevation 1,300 ft / 396 m (AMSL)
Location 45.861896° 1.181368°
Runways 1
Magnetic Variation 0.477° E

METAR

LFBL 221600Z AUTO 26005KT 190V310 9999 ///CB 22/09 Q1014 TEMPO VRB15G25KT 4000 SHRA

Decode

TAF

TAF LFBL 221100Z 2212/2312 VRB03KT 9999 SCT030TCU TEMPO 2212/2221 4000 SHRA SCT050CB PROB40 TEMPO 2213/2219 VRB15G25KT TSRA BECMG 2221/2223 CAVOK PROB40 TEMPO 2301/2307 4000 BR BKN003 PROB30 TEMPO 2302/2306 0400 FG VV/// TEMPO 2310/2312 SCT030TCU

Decode

Departure Runways

ID Width Length Bearing (true) Bearing (mag) Surface Threshold Offset Overrun Length
03 148 ft / 45 m 8,202 ft / 2,500 m 33.16° 32.68° Asphalt 0 ft / 0 m 0 ft / 0 m
21 148 ft / 45 m 8,202 ft / 2,500 m 213.18° 212.70° Asphalt 196 ft / 60 m 0 ft / 0 m

EGNX

Details ICAO EGNX (EMA)
Name East Midlands
Region United Kingdom
Timezone Europe/London (UTC+1.0)
Stats Elevation 306 ft / 93 m (AMSL)
Location 52.830999° -1.328155°
Runways 1
Magnetic Variation 0.967° W

METAR

EGNX 221550Z 04010KT 330V070 9999 FEW042 19/10 Q1019

Decode

TAF

TAF EGNX 221058Z 2212/2312 03012KT 9999 FEW045 BECMG 2220/2223 7000 PROB30 2300/2308 3000 BR BKN006 BECMG 2308/2311 9999

Decode

Destination Runways

ID Width Length Bearing (true) Bearing (mag) Surface Threshold Offset Overrun Length
09 151 ft / 46 m 9,462 ft / 2,884 m 88.25° 89.22° Asphalt 587 ft / 179 m 92 ft / 28 m
27 151 ft / 46 m 9,462 ft / 2,884 m 268.29° 269.26° Asphalt 423 ft / 129 m 98 ft / 30 m

Approach Navaids

Runway Type Ident Frequency Range Bearing (true) Bearing (mag) Slope Elevation
09 Localiser IEMW 109.35 MHz 18 nm / 33 km 88.30° 89.26° - 306 ft / 93 m (AMSL)
09 Glidescope IEMW 109.35 MHz 10 nm / 19 km 88.27° 89.24° 3.00° 306 ft / 93 m (AMSL)
09 DME IEMW 109.35 MHz 18 nm / 33 km - - - 322 ft / 98 m (AMSL)
27 Localiser IEME 109.35 MHz 18 nm / 33 km 268.25° 269.21° - 306 ft / 93 m (AMSL)
27 Glidescope IEME 109.35 MHz 10 nm / 19 km 268.27° 269.24° 3.00° 306 ft / 93 m (AMSL)
27 DME IEME 109.35 MHz 18 nm / 33 km - - - 322 ft / 98 m (AMSL)

Popular Alternatives